Holloway, Louisiana
Current Conditions -  °F | °C
As of 12:53 PM on Friday 24 Oct 2014 (Local Time) from KESF Reporting Station
Clear Clear  
Wind Chill: 70°   Ceiling: Unl
Heat Index: 70°   Visibility: 10mi
Dew Point: 49°   Wind: 6mph
Humidity: 47%   Direction: 10°N
Pressure: 30.14"   Gusts: NA
Location:  31.3606°N, 92.2142°W
Report Text: KESF 241753Z AUTO 01005KT 10SM CLR 21/09 A3014 RMK AO2 SLP206 T02110094 10217 20061 58011
Loading
Personal Weather Stations






























Interactive Weather Map
Tropical Storm Tracking
New forecast layout! Learn more

10-Day Weather Forecast

Advertisements
Track Severe Weather on mobile